createdAt,value
2018-09-17T00:00:07.291Z,53.32
2018-09-17T00:02:35.584Z,53.02
2018-09-17T00:05:04.231Z,53.04
2018-09-17T00:07:32.840Z,53.30
2018-09-17T00:10:01.079Z,53.30
2018-09-17T00:12:29.513Z,53.31
2018-09-17T00:14:57.837Z,52.96
2018-09-17T00:17:26.117Z,52.96
2018-09-17T00:19:54.328Z,53.07
2018-09-17T00:22:22.594Z,52.90
2018-09-17T00:24:50.928Z,53.27
2018-09-17T00:27:19.212Z,53.31
2018-09-17T00:29:47.498Z,53.24
2018-09-17T00:32:15.729Z,53.30
2018-09-17T00:34:44.063Z,52.79
2018-09-17T00:37:13.321Z,52.85
2018-09-17T00:39:41.562Z,53.28
2018-09-17T00:42:09.885Z,53.30
2018-09-17T00:44:38.205Z,53.24
2018-09-17T00:47:06.422Z,52.83
2018-09-17T00:49:34.648Z,52.96
2018-09-17T00:52:02.894Z,53.26
2018-09-17T00:54:31.316Z,52.74
2018-09-17T00:56:59.726Z,53.23
2018-09-17T00:59:28.003Z,53.17
2018-09-17T01:01:56.271Z,53.17
2018-09-17T01:04:25.326Z,53.19
2018-09-17T01:06:53.737Z,52.98
2018-09-17T01:09:27.418Z,52.82
2018-09-17T01:11:55.686Z,53.08
2018-09-17T01:14:23.927Z,52.70
2018-09-17T01:16:52.239Z,52.78
2018-09-17T01:19:20.461Z,53.19
2018-09-17T01:21:49.803Z,53.01
2018-09-17T01:24:18.097Z,52.72
2018-09-17T01:26:46.442Z,52.72
2018-09-17T01:29:14.681Z,52.65
2018-09-17T01:31:43.122Z,52.65
2018-09-17T01:34:11.327Z,52.75
2018-09-17T01:36:39.887Z,52.74
2018-09-17T01:39:09.647Z,52.77
2018-09-17T01:41:38.065Z,52.65
2018-09-17T01:44:06.573Z,52.53
2018-09-17T01:46:34.944Z,52.56
2018-09-17T01:49:03.222Z,52.67
2018-09-17T01:51:31.855Z,52.73
2018-09-17T01:54:00.143Z,52.90
2018-09-17T01:56:28.420Z,52.61
2018-09-17T01:58:56.686Z,52.99
2018-09-17T02:01:24.943Z,52.58
2018-09-17T02:03:53.310Z,52.88
2018-09-17T02:06:21.650Z,52.88
2018-09-17T02:08:50.102Z,52.52
2018-09-17T02:11:18.466Z,52.36
2018-09-17T02:13:46.883Z,52.62
2018-09-17T02:16:15.139Z,52.53
2018-09-17T02:18:43.481Z,52.73
2018-09-17T02:21:12.335Z,52.81
2018-09-17T02:23:40.594Z,52.91
2018-09-17T02:26:08.906Z,52.55
2018-09-17T02:28:37.169Z,52.47
2018-09-17T02:31:05.475Z,52.46
2018-09-17T02:33:33.811Z,52.52
2018-09-17T02:36:02.117Z,52.46
2018-09-17T02:38:30.430Z,52.34
2018-09-17T02:40:58.714Z,52.60
2018-09-17T02:43:26.973Z,52.58
2018-09-17T02:45:55.212Z,52.47
2018-09-17T02:48:23.542Z,52.50
2018-09-17T02:50:51.837Z,52.27
2018-09-17T02:53:20.183Z,52.35
2018-09-17T02:55:48.455Z,52.81
2018-09-17T02:58:16.712Z,52.74
2018-09-17T03:00:45.028Z,52.63
2018-09-17T03:03:13.419Z,52.30
2018-09-17T03:05:41.711Z,52.74
2018-09-17T03:08:09.967Z,52.39
2018-09-17T03:10:38.355Z,52.60
2018-09-17T03:13:06.619Z,52.61
2018-09-17T03:15:47.322Z,52.42
2018-09-17T03:18:15.589Z,52.42
2018-09-17T03:20:43.891Z,52.78
2018-09-17T03:23:12.362Z,52.75
2018-09-17T03:25:40.609Z,52.67
2018-09-17T03:28:08.862Z,52.46
2018-09-17T03:30:37.153Z,52.54
2018-09-17T03:33:05.464Z,52.90
2018-09-17T03:35:33.754Z,52.97
2018-09-17T03:38:45.255Z,52.89
2018-09-17T03:41:14.212Z,52.59
2018-09-17T03:43:52.645Z,52.74
2018-09-17T03:46:20.933Z,52.50
2018-09-17T03:48:49.152Z,52.55
2018-09-17T03:51:23.923Z,52.87
2018-09-17T03:53:52.203Z,52.84
2018-09-17T03:56:20.551Z,52.50
2018-09-17T03:58:48.818Z,52.86
2018-09-17T04:01:17.102Z,52.97
2018-09-17T04:03:45.410Z,52.42
2018-09-17T04:06:13.721Z,52.86
2018-09-17T04:08:41.915Z,52.90
2018-09-17T04:11:10.235Z,52.87
2018-09-17T04:13:38.626Z,52.66
2018-09-17T04:16:06.899Z,52.47
2018-09-17T04:18:35.174Z,52.42
2018-09-17T04:21:03.434Z,52.51
2018-09-17T04:23:33.746Z,52.39
2018-09-17T04:26:02.866Z,52.42
2018-09-17T04:28:31.256Z,52.74
2018-09-17T04:30:59.547Z,52.84
2018-09-17T04:33:29.379Z,53.06
2018-09-17T04:35:57.611Z,52.97
2018-09-17T04:38:25.880Z,52.68
2018-09-17T04:40:54.259Z,52.86
2018-09-17T04:43:22.475Z,53.02
2018-09-17T04:45:50.862Z,52.77
2018-09-17T04:48:19.243Z,52.99
2018-09-17T04:50:47.485Z,52.69
2018-09-17T04:53:15.730Z,52.99
2018-09-17T04:55:44.056Z,52.90
2018-09-17T04:58:12.251Z,52.86
2018-09-17T05:00:40.659Z,52.50
2018-09-17T05:03:08.976Z,52.32
2018-09-17T05:05:37.202Z,52.55
2018-09-17T05:08:05.487Z,52.87
2018-09-17T05:10:33.754Z,52.79
2018-09-17T05:13:02.026Z,52.53
2018-09-17T05:15:30.292Z,52.86
2018-09-17T05:17:58.674Z,52.59
2018-09-17T05:20:27.017Z,52.76
2018-09-17T05:22:55.457Z,52.86
2018-09-17T05:25:23.718Z,52.34
2018-09-17T05:27:51.952Z,52.76
2018-09-17T05:30:20.267Z,52.77
2018-09-17T05:32:48.528Z,52.87
2018-09-17T05:35:16.831Z,52.43
2018-09-17T05:37:45.115Z,52.70
2018-09-17T05:40:13.333Z,52.63
2018-09-17T05:42:41.599Z,52.34
2018-09-17T05:45:09.839Z,52.62
2018-09-17T05:47:38.080Z,52.57
2018-09-17T05:50:06.362Z,52.53
2018-09-17T05:52:34.603Z,52.36
2018-09-17T05:55:02.827Z,52.45
2018-09-17T05:57:31.075Z,52.45
2018-09-17T05:59:59.399Z,52.42
2018-09-17T06:02:27.819Z,52.35
2018-09-17T06:04:56.025Z,52.38
2018-09-17T06:07:24.299Z,52.23
2018-09-17T06:09:52.560Z,51.92
2018-09-17T06:12:20.981Z,51.93
2018-09-17T06:14:49.429Z,52.34
2018-09-17T06:17:17.662Z,51.84
2018-09-17T06:19:45.889Z,52.21
2018-09-17T06:22:14.187Z,51.90
2018-09-17T06:24:42.497Z,52.11
2018-09-17T06:27:10.773Z,52.04
2018-09-17T06:29:39.064Z,51.95
2018-09-17T06:32:07.362Z,52.32
2018-09-17T06:34:35.579Z,52.38
2018-09-17T06:37:03.827Z,51.98
2018-09-17T06:39:32.043Z,52.15
2018-09-17T06:42:00.299Z,52.45
2018-09-17T06:44:28.533Z,52.48
2018-09-17T06:46:56.859Z,52.45
2018-09-17T06:49:25.211Z,52.39
2018-09-17T06:51:53.457Z,52.46
2018-09-17T06:54:21.685Z,52.41
2018-09-17T06:56:49.966Z,52.07
2018-09-17T06:59:18.231Z,52.46
2018-09-17T07:01:46.496Z,52.24
2018-09-17T07:04:14.786Z,52.56
2018-09-17T07:06:43.039Z,52.58
2018-09-17T07:09:12.184Z,52.51
2018-09-17T07:11:40.463Z,52.41
2018-09-17T07:14:09.068Z,52.54
2018-09-17T07:16:37.474Z,52.14
2018-09-17T07:19:05.904Z,52.57
2018-09-17T07:21:34.229Z,52.16
2018-09-17T07:24:02.534Z,52.58
2018-09-17T07:26:30.815Z,52.07
2018-09-17T07:28:59.522Z,52.51
2018-09-17T07:31:27.765Z,52.19
2018-09-17T07:33:55.995Z,52.14
2018-09-17T07:36:24.283Z,52.54
2018-09-17T07:38:52.512Z,52.44
2018-09-17T07:41:20.754Z,52.61
2018-09-17T07:43:49.014Z,52.62
2018-09-17T07:46:17.354Z,52.61
2018-09-17T07:48:45.591Z,52.25
2018-09-17T07:51:13.855Z,52.61
2018-09-17T07:53:42.270Z,52.31
2018-09-17T07:56:10.503Z,52.62
2018-09-17T07:58:38.723Z,52.75
2018-09-17T08:01:07.015Z,52.30
2018-09-17T08:03:35.255Z,52.72
2018-09-17T08:06:03.525Z,52.74
2018-09-17T08:08:32.063Z,52.52
2018-09-17T08:11:00.429Z,52.69
2018-09-17T08:13:28.626Z,52.45
2018-09-17T08:15:56.887Z,53.00
2018-09-17T08:18:25.353Z,52.49
2018-09-17T08:20:53.598Z,52.60
2018-09-17T08:23:21.838Z,52.48
2018-09-17T08:25:50.075Z,52.92
2018-09-17T08:28:18.379Z,52.96
2018-09-17T08:30:46.599Z,52.57
2018-09-17T08:33:14.898Z,52.94
2018-09-17T08:35:43.139Z,53.00
2018-09-17T08:38:11.411Z,52.96
2018-09-17T08:40:39.775Z,52.69
2018-09-17T08:43:07.994Z,53.00
2018-09-17T08:45:36.212Z,52.72
2018-09-17T08:48:04.527Z,53.10
2018-09-17T08:50:32.840Z,52.71
2018-09-17T08:53:01.132Z,52.73
2018-09-17T08:55:34.859Z,52.97
2018-09-17T08:58:08.478Z,52.76
2018-09-17T09:00:41.938Z,53.19
2018-09-17T09:03:16.226Z,53.08
2018-09-17T09:05:48.661Z,53.22
2018-09-17T09:08:16.965Z,52.82
2018-09-17T09:10:47.812Z,52.76
2018-09-17T09:13:24.185Z,53.27
2018-09-17T09:15:52.535Z,53.33
2018-09-17T09:18:20.789Z,52.99
2018-09-17T09:20:49.133Z,53.21
2018-09-17T09:23:17.358Z,53.25
2018-09-17T09:25:45.649Z,53.34
2018-09-17T09:28:13.902Z,53.17
2018-09-17T09:30:42.152Z,53.26
2018-09-17T09:33:10.377Z,53.31
2018-09-17T09:35:38.608Z,53.37
2018-09-17T09:38:06.870Z,53.28
2018-09-17T09:40:35.070Z,52.99
2018-09-17T09:43:03.287Z,53.00
2018-09-17T09:45:31.522Z,53.38
2018-09-17T09:47:59.762Z,53.15
2018-09-17T09:50:27.962Z,52.99
2018-09-17T09:52:56.194Z,53.10
2018-09-17T09:55:24.395Z,53.41
2018-09-17T09:57:52.633Z,53.05
2018-09-17T10:00:26.070Z,53.22
2018-09-17T10:02:59.635Z,52.99
2018-09-17T10:05:27.825Z,53.33
2018-09-17T10:07:56.039Z,53.47
2018-09-17T10:11:31.406Z,53.40
2018-09-17T10:14:05.120Z,53.07
2018-09-17T10:16:33.476Z,53.39
2018-09-17T10:19:06.978Z,53.04
2018-09-17T10:21:35.226Z,53.45
2018-09-17T10:24:03.577Z,53.47
2018-09-17T10:26:31.788Z,53.44
2018-09-17T10:29:00.071Z,53.12
2018-09-17T10:31:28.299Z,53.41
2018-09-17T10:33:56.540Z,53.50
2018-09-17T10:36:24.805Z,53.43
2018-09-17T10:38:53.127Z,53.07
2018-09-17T10:41:21.386Z,53.04
2018-09-17T10:43:49.647Z,53.09
2018-09-17T10:46:17.899Z,53.54
2018-09-17T10:48:46.150Z,53.45
2018-09-17T10:51:14.400Z,53.16
2018-09-17T10:53:42.634Z,53.17
2018-09-17T10:56:10.879Z,53.27
2018-09-17T10:58:39.131Z,53.49
2018-09-17T11:01:07.375Z,53.58
2018-09-17T11:03:35.598Z,53.48
2018-09-17T11:06:03.919Z,53.11
2018-09-17T11:08:32.143Z,53.55
2018-09-17T11:11:00.407Z,53.21
2018-09-17T11:13:28.610Z,53.41
2018-09-17T11:15:56.905Z,53.50
2018-09-17T11:18:25.126Z,53.00
2018-09-17T11:20:53.340Z,53.66
2018-09-17T11:23:21.589Z,53.56
2018-09-17T11:25:49.851Z,53.36
2018-09-17T11:28:18.058Z,53.24
2018-09-17T11:30:46.301Z,53.63
2018-09-17T11:33:14.615Z,53.24
2018-09-17T11:35:42.879Z,53.67
2018-09-17T11:38:11.299Z,53.55
2018-09-17T11:40:39.752Z,53.44
2018-09-17T11:43:07.978Z,53.68
2018-09-17T11:45:36.255Z,53.58
2018-09-17T11:48:04.511Z,53.25
2018-09-17T11:50:32.763Z,53.27
2018-09-17T11:53:01.050Z,53.68
2018-09-17T11:55:29.462Z,53.28
2018-09-17T11:57:57.817Z,53.66
2018-09-17T12:01:32.133Z,53.67
2018-09-17T12:04:05.869Z,53.66
2018-09-17T12:06:39.547Z,53.42
2018-09-17T12:09:09.796Z,53.53
2018-09-17T12:11:38.211Z,53.32
2018-09-17T12:14:06.631Z,53.34
2018-09-17T12:16:34.922Z,53.72
2018-09-17T12:19:05.223Z,53.47
2018-09-17T12:21:33.631Z,53.42
2018-09-17T12:24:02.137Z,53.78
2018-09-17T12:26:30.470Z,53.98
2018-09-17T12:28:58.904Z,53.76
2018-09-17T12:31:27.152Z,53.85
2018-09-17T12:33:55.533Z,53.63
2018-09-17T12:36:23.658Z,53.76
2018-09-17T12:38:51.957Z,53.39
2018-09-17T12:41:20.219Z,53.37
2018-09-17T12:43:48.434Z,53.74
2018-09-17T12:46:16.791Z,53.44
2018-09-17T12:48:45.156Z,53.41
2018-09-17T12:51:13.472Z,53.78
2018-09-17T12:53:41.791Z,53.82
2018-09-17T12:56:10.073Z,53.43
2018-09-17T12:58:38.466Z,53.81
2018-09-17T13:01:06.702Z,53.80
2018-09-17T13:03:35.031Z,53.40
2018-09-17T13:06:03.413Z,53.40
2018-09-17T13:08:31.626Z,53.38
2018-09-17T13:10:59.990Z,53.51
2018-09-17T13:13:28.232Z,53.61
2018-09-17T13:15:56.474Z,53.60
2018-09-17T13:18:26.027Z,53.34
2018-09-17T13:20:54.327Z,53.15
2018-09-17T13:23:22.541Z,53.52
2018-09-17T13:25:50.873Z,53.53
2018-09-17T13:28:19.070Z,53.52
2018-09-17T13:30:47.345Z,53.24
2018-09-17T13:33:15.617Z,53.72
2018-09-17T13:35:43.887Z,53.71
2018-09-17T13:38:12.140Z,53.47
2018-09-17T13:40:40.376Z,53.89
2018-09-17T13:43:08.816Z,53.62
2018-09-17T13:45:37.522Z,53.78
2018-09-17T13:48:05.891Z,54.05
2018-09-17T13:50:34.149Z,53.62
2018-09-17T13:53:02.449Z,54.09
2018-09-17T13:55:30.668Z,53.78
2018-09-17T13:57:58.994Z,53.93
2018-09-17T14:00:27.270Z,53.84
2018-09-17T14:02:55.478Z,54.40
2018-09-17T14:05:23.712Z,54.47
2018-09-17T14:07:52.302Z,54.17
2018-09-17T14:10:20.684Z,54.38
2018-09-17T14:12:48.814Z,54.61
2018-09-17T14:15:17.062Z,54.60
2018-09-17T14:17:45.339Z,54.55
2018-09-17T14:20:13.598Z,54.21
2018-09-17T14:22:41.845Z,54.38
2018-09-17T14:25:10.094Z,54.28
2018-09-17T14:27:38.511Z,54.16
2018-09-17T14:30:06.655Z,54.49
2018-09-17T14:32:40.339Z,54.14
2018-09-17T14:35:08.604Z,54.60
2018-09-17T14:37:36.946Z,54.08
2018-09-17T14:40:05.166Z,54.39
2018-09-17T14:42:33.379Z,54.45
2018-09-17T14:45:01.626Z,54.46
2018-09-17T14:47:29.885Z,54.00
2018-09-17T14:49:58.211Z,54.16
2018-09-17T14:52:26.531Z,54.03
2018-09-17T14:54:54.732Z,53.89
2018-09-17T14:57:22.981Z,53.88
2018-09-17T14:59:51.210Z,53.89
2018-09-17T15:02:19.512Z,54.22
2018-09-17T15:04:47.728Z,53.77
2018-09-17T15:07:16.006Z,53.75
2018-09-17T15:09:44.259Z,54.19
2018-09-17T15:12:12.555Z,54.19
2018-09-17T15:14:40.802Z,54.28
2018-09-17T15:17:09.085Z,53.82
2018-09-17T15:19:37.482Z,53.90
2018-09-17T15:22:05.785Z,53.98
2018-09-17T15:24:34.112Z,54.37
2018-09-17T15:27:02.338Z,54.12
2018-09-17T15:29:30.660Z,54.36
2018-09-17T15:31:59.022Z,54.06
2018-09-17T15:34:27.329Z,54.47
2018-09-17T15:36:55.437Z,53.99
2018-09-17T15:39:23.669Z,54.45
2018-09-17T15:41:51.914Z,54.43
2018-09-17T15:44:20.308Z,53.97
2018-09-17T15:46:48.554Z,54.22
2018-09-17T15:49:16.717Z,53.66
2018-09-17T15:51:44.995Z,54.02
2018-09-17T15:54:13.178Z,54.01
2018-09-17T15:56:41.425Z,53.69
2018-09-17T15:59:09.673Z,54.02
2018-09-17T16:01:38.006Z,53.89
2018-09-17T16:04:06.336Z,53.56
2018-09-17T16:06:34.561Z,53.86
2018-09-17T16:09:02.877Z,53.76
2018-09-17T16:11:31.135Z,53.62
2018-09-17T16:13:59.357Z,53.90
2018-09-17T16:16:27.679Z,53.69
2018-09-17T16:18:55.913Z,53.54
2018-09-17T16:21:24.223Z,53.45
2018-09-17T16:23:52.462Z,53.91
2018-09-17T16:26:20.761Z,53.89
2018-09-17T16:28:49.054Z,53.58
2018-09-17T16:31:17.342Z,54.00
2018-09-17T16:33:45.682Z,53.59
2018-09-17T16:36:13.944Z,53.97
2018-09-17T16:38:42.258Z,53.60
2018-09-17T16:41:10.499Z,53.96
2018-09-17T16:43:38.959Z,53.59
2018-09-17T16:46:07.234Z,53.91
2018-09-17T16:48:35.510Z,53.66
2018-09-17T16:51:03.738Z,54.01
2018-09-17T16:53:32.004Z,53.63
2018-09-17T16:56:00.363Z,53.69
2018-09-17T16:58:29.072Z,54.07
2018-09-17T17:00:57.311Z,53.71
2018-09-17T17:03:25.585Z,53.89
2018-09-17T17:05:53.883Z,54.14
2018-09-17T17:08:22.095Z,53.64
2018-09-17T17:10:50.481Z,53.64
2018-09-17T17:13:18.673Z,54.01
2018-09-17T17:15:48.325Z,53.70
2018-09-17T17:18:18.520Z,54.03
2018-09-17T17:20:47.032Z,53.89
2018-09-17T17:23:15.300Z,53.77
2018-09-17T17:25:43.605Z,53.58
2018-09-17T17:28:12.025Z,53.97
2018-09-17T17:30:40.539Z,53.54
2018-09-17T17:33:08.884Z,53.77
2018-09-17T17:35:37.353Z,53.49
2018-09-17T17:38:05.915Z,53.50
2018-09-17T17:40:34.449Z,53.51
2018-09-17T17:43:02.577Z,53.80
2018-09-17T17:45:30.789Z,53.78
2018-09-17T17:47:59.045Z,53.77
2018-09-17T17:50:27.316Z,53.75
2018-09-17T17:52:55.536Z,53.29
2018-09-17T17:55:23.767Z,53.63
2018-09-17T17:57:52.060Z,53.72
2018-09-17T18:00:20.341Z,53.30
2018-09-17T18:02:48.658Z,53.49
2018-09-17T18:05:16.890Z,53.59
2018-09-17T18:07:45.094Z,53.19
2018-09-17T18:10:13.473Z,53.08
2018-09-17T18:12:41.764Z,53.10
2018-09-17T18:15:09.996Z,53.38
2018-09-17T18:17:38.229Z,53.42
2018-09-17T18:20:07.007Z,53.14
2018-09-17T18:22:35.257Z,53.32
2018-09-17T18:25:04.051Z,53.28
2018-09-17T18:27:32.377Z,53.33
2018-09-17T18:30:00.634Z,53.28
2018-09-17T18:32:28.920Z,53.23
2018-09-17T18:34:57.192Z,53.16
2018-09-17T18:37:25.434Z,52.99
2018-09-17T18:39:53.698Z,53.23
2018-09-17T18:42:22.047Z,52.92
2018-09-17T18:44:50.329Z,52.69
2018-09-17T18:47:18.886Z,53.04
2018-09-17T18:49:47.071Z,53.32
2018-09-17T18:52:15.390Z,53.03
2018-09-17T18:54:43.654Z,53.19
2018-09-17T18:57:11.977Z,53.25
2018-09-17T18:59:40.227Z,52.72
2018-09-17T19:02:08.667Z,52.71
2018-09-17T19:04:36.984Z,52.77
2018-09-17T19:07:05.475Z,52.95
2018-09-17T19:09:39.155Z,52.88
2018-09-17T19:12:07.681Z,53.27
2018-09-17T19:14:41.223Z,53.39
2018-09-17T19:17:14.781Z,53.08
2018-09-17T19:19:43.128Z,53.37
2018-09-17T19:22:16.733Z,53.09
2018-09-17T19:24:44.833Z,53.41
2018-09-17T19:27:13.202Z,53.18
2018-09-17T19:29:41.481Z,53.12
2018-09-17T19:32:09.756Z,52.78
2018-09-17T19:34:38.122Z,52.81
2018-09-17T19:37:12.447Z,52.75
2018-09-17T19:39:46.188Z,52.73
2018-09-17T19:42:14.569Z,53.12
2018-09-17T19:44:48.067Z,53.20
2018-09-17T19:47:16.421Z,53.24
2018-09-17T19:49:44.687Z,52.75
2018-09-17T19:52:19.037Z,52.73
2018-09-17T19:54:47.984Z,53.25
2018-09-17T19:57:21.804Z,53.23
2018-09-17T19:59:51.702Z,52.97
2018-09-17T20:02:20.160Z,52.88
2018-09-17T20:04:53.703Z,53.40
2018-09-17T20:07:21.962Z,53.08
2018-09-17T20:09:50.258Z,53.31
2018-09-17T20:12:18.539Z,52.99
2018-09-17T20:14:46.890Z,53.41
2018-09-17T20:17:15.391Z,53.38
2018-09-17T20:19:43.627Z,52.95
2018-09-17T20:22:12.420Z,53.14
2018-09-17T20:24:41.557Z,53.28
2018-09-17T20:27:10.092Z,53.09
2018-09-17T20:29:38.596Z,53.36
2018-09-17T20:32:06.945Z,53.07
2018-09-17T20:34:35.316Z,52.85
2018-09-17T20:37:03.495Z,53.12
2018-09-17T20:39:31.825Z,52.77
2018-09-17T20:42:00.398Z,53.14
2018-09-17T20:44:28.662Z,53.16
2018-09-17T20:46:56.923Z,52.71
2018-09-17T20:49:25.997Z,53.14
2018-09-17T20:51:54.268Z,53.12
2018-09-17T20:54:22.510Z,53.09
2018-09-17T20:56:50.872Z,53.11
2018-09-17T20:59:19.119Z,52.74
2018-09-17T21:01:47.674Z,52.62
2018-09-17T21:04:15.864Z,52.66
2018-09-17T21:06:44.103Z,52.93
2018-09-17T21:09:12.988Z,52.95
2018-09-17T21:11:41.511Z,52.97
2018-09-17T21:14:09.694Z,52.50
2018-09-17T21:16:38.541Z,52.94
2018-09-17T21:19:06.988Z,52.37
2018-09-17T21:21:35.352Z,52.81
2018-09-17T21:24:03.646Z,52.78
2018-09-17T21:26:31.945Z,52.43
2018-09-17T21:29:00.139Z,52.44
2018-09-17T21:31:28.931Z,52.79
2018-09-17T21:33:57.535Z,52.38
2018-09-17T21:36:25.792Z,52.79
2018-09-17T21:38:54.159Z,52.73
2018-09-17T21:41:22.382Z,52.67
2018-09-17T21:43:50.911Z,52.22
2018-09-17T21:46:19.247Z,52.25
2018-09-17T21:48:47.562Z,52.61
2018-09-17T21:51:15.987Z,52.56
2018-09-17T21:53:44.259Z,52.58
2018-09-17T21:56:12.621Z,52.24
2018-09-17T21:58:40.944Z,52.25
2018-09-17T22:01:09.122Z,52.44
2018-09-17T22:03:37.305Z,52.37
2018-09-17T22:06:05.575Z,52.44
2018-09-17T22:08:33.907Z,52.45
2018-09-17T22:11:02.112Z,52.29
2018-09-17T22:13:30.345Z,51.93
2018-09-17T22:15:58.605Z,52.33
2018-09-17T22:18:26.790Z,52.29
2018-09-17T22:20:55.134Z,52.02
2018-09-17T22:23:23.383Z,52.31
2018-09-17T22:25:51.681Z,51.78
2018-09-17T22:28:19.998Z,52.17
2018-09-17T22:30:48.213Z,52.15
2018-09-17T22:33:16.548Z,52.17
2018-09-17T22:35:44.886Z,52.19
2018-09-17T22:38:13.118Z,51.80
2018-09-17T22:40:41.385Z,51.75
2018-09-17T22:43:09.655Z,52.04
2018-09-17T22:45:37.870Z,52.10
2018-09-17T22:48:06.078Z,52.08
2018-09-17T22:50:34.393Z,51.56
2018-09-17T22:53:02.671Z,51.94
2018-09-17T22:55:30.922Z,51.50
2018-09-17T22:57:59.170Z,51.62
2018-09-17T23:00:27.553Z,51.85
2018-09-17T23:02:55.814Z,51.83
2018-09-17T23:05:24.174Z,51.62
2018-09-17T23:07:52.405Z,51.85
2018-09-17T23:10:20.653Z,51.75
2018-09-17T23:12:48.953Z,51.79
2018-09-17T23:15:17.167Z,51.74
2018-09-17T23:17:45.424Z,51.67
2018-09-17T23:20:13.622Z,51.42
2018-09-17T23:22:41.846Z,51.18
2018-09-17T23:25:10.197Z,51.18
2018-09-17T23:27:38.427Z,51.04
2018-09-17T23:30:06.870Z,51.06
2018-09-17T23:32:35.135Z,51.57
2018-09-17T23:35:03.366Z,50.97
2018-09-17T23:37:31.671Z,51.03
2018-09-17T23:39:59.996Z,51.06
2018-09-17T23:42:28.236Z,51.04
2018-09-17T23:44:56.472Z,51.41
2018-09-17T23:47:24.689Z,50.93
2018-09-17T23:49:53.007Z,50.93
2018-09-17T23:52:21.206Z,51.05
2018-09-17T23:54:49.440Z,51.20
2018-09-17T23:57:17.677Z,51.27
2018-09-17T23:59:45.882Z,50.80
